Time;durP1;ratioP1;P1;durP2;ratioP2;P2;SDS_P1;SDS_P2;PMS_P1;PMS_P2;Temp;Humidity;BMP_temperature;BMP_pressure;BME280_temperature;BME280_humidity;BME280_pressure;Samples;Min_cycle;Max_cycle;Signal;HPM_P1;HPM_P2
2020/11/04 00:01:04;;;;;;;2.29;1.64;;;;;;;20.25;61.92;101552.33;;;;-54
2020/11/04 00:04:04;;;;;;;2.66;1.66;;;;;;;20.24;61.95;101558.44;;;;-54
2020/11/04 00:07:04;;;;;;;2.17;1.65;;;;;;;20.23;62.00;101556.56;;;;-54
2020/11/04 00:10:04;;;;;;;1.77;1.59;;;;;;;20.23;61.95;101566.94;;;;-58
2020/11/04 00:13:04;;;;;;;1.62;1.52;;;;;;;20.22;61.98;101565.96;;;;-60
2020/11/04 00:16:04;;;;;;;2.09;1.61;;;;;;;20.21;62.02;101570.97;;;;-53
2020/11/04 00:19:04;;;;;;;1.76;1.51;;;;;;;20.20;61.97;101568.61;;;;-52
2020/11/04 00:22:04;;;;;;;1.67;1.55;;;;;;;20.19;61.99;101571.74;;;;-53
2020/11/04 00:25:04;;;;;;;2.03;1.60;;;;;;;20.19;61.98;101581.22;;;;-53
2020/11/04 00:28:04;;;;;;;1.66;1.49;;;;;;;20.18;62.04;101579.63;;;;-52
2020/11/04 00:31:04;;;;;;;2.25;1.51;;;;;;;20.18;62.01;101576.62;;;;-58
2020/11/04 00:34:04;;;;;;;1.70;1.47;;;;;;;20.17;61.95;101580.41;;;;-59
2020/11/04 00:37:04;;;;;;;2.49;1.65;;;;;;;20.16;62.02;101585.20;;;;-58
2020/11/04 00:40:04;;;;;;;2.77;1.71;;;;;;;20.15;62.00;101578.12;;;;-58
2020/11/04 00:43:04;;;;;;;1.90;1.55;;;;;;;20.15;62.04;101578.48;;;;-55
2020/11/04 00:46:04;;;;;;;2.03;1.60;;;;;;;20.14;62.08;101577.27;;;;-54
2020/11/04 00:49:04;;;;;;;2.41;1.76;;;;;;;20.13;62.03;101581.00;;;;-53
2020/11/04 00:52:04;;;;;;;2.42;1.60;;;;;;;20.12;61.97;101584.39;;;;-53
2020/11/04 00:55:04;;;;;;;1.83;1.60;;;;;;;20.12;62.06;101590.48;;;;-60
2020/11/04 00:58:04;;;;;;;2.61;1.47;;;;;;;20.11;62.06;101592.72;;;;-52
2020/11/04 01:01:04;;;;;;;1.73;1.53;;;;;;;20.10;62.02;101606.06;;;;-52
2020/11/04 01:04:04;;;;;;;2.78;1.73;;;;;;;20.09;62.00;101598.09;;;;-52
2020/11/04 01:07:04;;;;;;;2.15;1.55;;;;;;;20.09;62.03;101600.45;;;;-58
2020/11/04 01:10:04;;;;;;;1.85;1.54;;;;;;;20.08;62.01;101592.43;;;;-60
2020/11/04 01:13:04;;;;;;;1.60;1.50;;;;;;;20.07;62.07;101594.87;;;;-60
2020/11/04 01:16:04;;;;;;;1.77;1.51;;;;;;;20.07;62.07;101599.26;;;;-53
2020/11/04 01:19:04;;;;;;;2.01;1.58;;;;;;;20.06;62.05;101599.14;;;;-53
2020/11/04 01:22:04;;;;;;;1.55;1.45;;;;;;;20.05;62.04;101598.98;;;;-54
2020/11/04 01:25:04;;;;;;;2.51;1.51;;;;;;;20.04;62.05;101603.98;;;;-54
2020/11/04 01:28:04;;;;;;;1.91;1.52;;;;;;;20.04;62.07;101607.56;;;;-54
2020/11/04 01:31:04;;;;;;;2.17;1.70;;;;;;;20.03;62.06;101602.91;;;;-60
2020/11/04 01:34:04;;;;;;;3.55;1.58;;;;;;;20.03;62.05;101595.52;;;;-60
2020/11/04 01:37:04;;;;;;;1.82;1.48;;;;;;;20.03;62.07;101589.08;;;;-60
2020/11/04 01:40:04;;;;;;;1.81;1.48;;;;;;;20.02;62.04;101589.13;;;;-60
2020/11/04 01:43:04;;;;;;;1.56;1.45;;;;;;;20.01;62.06;101580.73;;;;-60
2020/11/04 01:46:04;;;;;;;1.60;1.50;;;;;;;20.01;62.03;101584.88;;;;-60
2020/11/04 01:49:04;;;;;;;2.29;1.47;;;;;;;20.00;62.06;101591.36;;;;-58
2020/11/04 01:52:04;;;;;;;2.71;1.69;;;;;;;19.99;62.05;101589.72;;;;-58
2020/11/04 01:55:04;;;;;;;1.59;1.49;;;;;;;19.99;62.07;101592.16;;;;-58
2020/11/04 01:58:04;;;;;;;1.87;1.49;;;;;;;19.98;62.06;101593.10;;;;-58
2020/11/04 02:01:04;;;;;;;1.69;1.59;;;;;;;19.99;62.05;101590.70;;;;-52
2020/11/04 02:04:04;;;;;;;1.93;1.44;;;;;;;19.97;62.05;101586.58;;;;-58
2020/11/04 02:07:04;;;;;;;1.51;1.40;;;;;;;19.97;62.06;101584.80;;;;-60
2020/11/04 02:10:04;;;;;;;1.67;1.57;;;;;;;19.96;62.07;101585.08;;;;-60
2020/11/04 02:13:04;;;;;;;1.93;1.60;;;;;;;19.96;62.08;101586.47;;;;-60
2020/11/04 02:16:04;;;;;;;1.76;1.52;;;;;;;19.95;62.06;101581.73;;;;-52
2020/11/04 02:19:04;;;;;;;1.87;1.52;;;;;;;19.94;62.09;101581.89;;;;-52
2020/11/04 02:22:04;;;;;;;1.81;1.56;;;;;;;19.95;62.03;101585.40;;;;-54
2020/11/04 02:25:04;;;;;;;1.41;1.31;;;;;;;19.94;62.02;101591.79;;;;-60
2020/11/04 02:28:04;;;;;;;2.85;1.54;;;;;;;19.94;62.07;101585.80;;;;-60
2020/11/04 02:31:04;;;;;;;1.56;1.45;;;;;;;19.93;62.09;101594.14;;;;-58
2020/11/04 02:34:04;;;;;;;1.63;1.50;;;;;;;19.93;62.09;101597.55;;;;-58
2020/11/04 02:37:04;;;;;;;2.37;1.53;;;;;;;19.93;62.06;101597.06;;;;-54
2020/11/04 02:40:04;;;;;;;2.01;1.39;;;;;;;19.92;62.10;101597.27;;;;-59
2020/11/04 02:43:04;;;;;;;2.28;1.46;;;;;;;19.92;62.07;101609.72;;;;-60
2020/11/04 02:46:04;;;;;;;1.66;1.41;;;;;;;19.91;62.01;101610.45;;;;-58
2020/11/04 02:49:04;;;;;;;1.56;1.37;;;;;;;19.90;62.05;101610.84;;;;-52
2020/11/04 02:52:04;;;;;;;1.59;1.49;;;;;;;19.89;62.02;101612.28;;;;-52
2020/11/04 02:55:04;;;;;;;1.60;1.50;;;;;;;19.89;62.05;101614.47;;;;-57
2020/11/04 02:58:04;;;;;;;1.61;1.45;;;;;;;19.89;62.08;101613.17;;;;-53
2020/11/04 03:01:04;;;;;;;1.89;1.53;;;;;;;19.88;62.05;101614.95;;;;-58
2020/11/04 03:04:04;;;;;;;1.51;1.41;;;;;;;19.88;62.06;101620.48;;;;-52
2020/11/04 03:07:04;;;;;;;1.69;1.59;;;;;;;19.88;62.03;101622.52;;;;-60
2020/11/04 03:10:04;;;;;;;1.75;1.49;;;;;;;19.87;62.04;101623.78;;;;-58
2020/11/04 03:13:04;;;;;;;1.82;1.45;;;;;;;19.86;62.01;101621.41;;;;-60
2020/11/04 03:16:04;;;;;;;1.58;1.40;;;;;;;19.86;62.04;101620.67;;;;-53
2020/11/04 03:19:04;;;;;;;1.93;1.45;;;;;;;19.85;62.05;101625.28;;;;-58
2020/11/04 03:22:04;;;;;;;1.53;1.43;;;;;;;19.85;62.06;101626.66;;;;-58
2020/11/04 03:25:04;;;;;;;1.53;1.43;;;;;;;19.85;62.07;101623.41;;;;-60
2020/11/04 03:28:04;;;;;;;1.63;1.53;;;;;;;19.84;62.04;101627.63;;;;-53
2020/11/04 03:31:04;;;;;;;1.60;1.50;;;;;;;19.83;62.00;101630.59;;;;-53
2020/11/04 03:34:04;;;;;;;1.60;1.50;;;;;;;19.83;62.04;101634.50;;;;-53
2020/11/04 03:37:04;;;;;;;1.50;1.40;;;;;;;19.83;62.07;101644.02;;;;-54
2020/11/04 03:40:04;;;;;;;1.60;1.50;;;;;;;19.83;62.03;101646.78;;;;-53
2020/11/04 03:43:04;;;;;;;1.73;1.41;;;;;;;19.83;62.00;101646.30;;;;-60
2020/11/04 03:46:04;;;;;;;1.58;1.48;;;;;;;19.82;62.04;101641.13;;;;-52
2020/11/04 03:49:04;;;;;;;1.60;1.50;;;;;;;19.82;62.02;101645.96;;;;-53
2020/11/04 03:52:04;;;;;;;1.70;1.40;;;;;;;19.81;61.96;101641.77;;;;-53
2020/11/04 03:55:04;;;;;;;1.51;1.41;;;;;;;19.80;61.99;101646.00;;;;-58
2020/11/04 03:58:04;;;;;;;1.64;1.52;;;;;;;19.80;62.00;101656.33;;;;-53
2020/11/04 04:01:04;;;;;;;1.61;1.51;;;;;;;19.79;61.99;101654.75;;;;-53
2020/11/04 04:04:04;;;;;;;1.62;1.50;;;;;;;19.79;62.01;101659.38;;;;-53
2020/11/04 04:07:04;;;;;;;1.58;1.48;;;;;;;19.78;61.98;101668.56;;;;-60
2020/11/04 04:10:04;;;;;;;1.50;1.40;;;;;;;19.78;62.00;101671.98;;;;-60
2020/11/04 04:13:04;;;;;;;1.53;1.43;;;;;;;19.77;61.99;101675.11;;;;-60
2020/11/04 04:16:04;;;;;;;1.41;1.31;;;;;;;19.77;61.97;101676.83;;;;-54
2020/11/04 04:19:04;;;;;;;2.01;1.46;;;;;;;19.76;61.99;101677.30;;;;-54
2020/11/04 04:22:04;;;;;;;1.79;1.51;;;;;;;19.76;61.93;101670.70;;;;-52
2020/11/04 04:25:04;;;;;;;1.50;1.40;;;;;;;19.74;61.93;101665.29;;;;-52
2020/11/04 04:28:04;;;;;;;1.81;1.44;;;;;;;19.74;61.94;101676.19;;;;-53
2020/11/04 04:31:04;;;;;;;1.56;1.46;;;;;;;19.75;62.01;101681.56;;;;-53
2020/11/04 04:34:04;;;;;;;1.50;1.40;;;;;;;19.74;61.94;101686.03;;;;-52
2020/11/04 04:37:04;;;;;;;1.64;1.54;;;;;;;19.73;61.96;101692.58;;;;-60
2020/11/04 04:40:04;;;;;;;1.62;1.52;;;;;;;19.73;61.96;101699.90;;;;-60
2020/11/04 04:43:04;;;;;;;1.50;1.39;;;;;;;19.73;61.88;101699.98;;;;-52
2020/11/04 04:46:04;;;;;;;1.55;1.45;;;;;;;19.73;61.88;101695.50;;;;-53
2020/11/04 04:49:04;;;;;;;1.59;1.49;;;;;;;19.72;61.91;101690.45;;;;-52
2020/11/04 04:52:04;;;;;;;1.55;1.42;;;;;;;19.72;61.95;101686.80;;;;-53
2020/11/04 04:55:04;;;;;;;1.49;1.39;;;;;;;19.71;61.93;101692.52;;;;-53
2020/11/04 04:58:04;;;;;;;1.40;1.30;;;;;;;19.71;61.91;101686.91;;;;-54
2020/11/04 05:01:04;;;;;;;1.78;1.44;;;;;;;19.70;61.93;101691.02;;;;-53
2020/11/04 05:04:04;;;;;;;1.57;1.45;;;;;;;19.69;61.94;101687.00;;;;-54
2020/11/04 05:07:04;;;;;;;1.40;1.30;;;;;;;19.69;61.93;101688.70;;;;-54
2020/11/04 05:10:04;;;;;;;1.52;1.40;;;;;;;19.69;61.87;101699.84;;;;-58
2020/11/04 05:13:04;;;;;;;1.59;1.49;;;;;;;19.69;61.98;101700.41;;;;-58
2020/11/04 05:16:04;;;;;;;1.47;1.37;;;;;;;19.68;61.87;101701.45;;;;-60
2020/11/04 05:19:04;;;;;;;1.50;1.40;;;;;;;19.67;61.90;101703.48;;;;-60
2020/11/04 05:22:04;;;;;;;1.59;1.49;;;;;;;19.67;61.94;101703.89;;;;-60
2020/11/04 05:25:04;;;;;;;1.63;1.44;;;;;;;19.67;61.93;101703.08;;;;-60
2020/11/04 05:28:04;;;;;;;1.61;1.50;;;;;;;19.67;61.89;101707.03;;;;-53
2020/11/04 05:31:04;;;;;;;1.55;1.45;;;;;;;19.66;61.89;101708.08;;;;-53
2020/11/04 05:34:04;;;;;;;1.46;1.34;;;;;;;19.66;61.88;101706.86;;;;-60
2020/11/04 05:37:04;;;;;;;2.52;1.50;;;;;;;19.65;61.92;101708.80;;;;-53
2020/11/04 05:40:04;;;;;;;1.61;1.47;;;;;;;19.65;61.90;101703.41;;;;-60
2020/11/04 05:43:04;;;;;;;1.59;1.49;;;;;;;19.64;61.88;101698.11;;;;-57
2020/11/04 05:46:04;;;;;;;1.59;1.47;;;;;;;19.64;61.82;101711.12;;;;-58
2020/11/04 05:49:04;;;;;;;1.81;1.47;;;;;;;19.63;61.80;101709.89;;;;-60
2020/11/04 05:52:04;;;;;;;1.79;1.59;;;;;;;19.63;61.88;101709.81;;;;-60
2020/11/04 05:55:04;;;;;;;1.51;1.39;;;;;;;19.62;61.88;101705.69;;;;-60
2020/11/04 05:58:04;;;;;;;2.51;1.50;;;;;;;19.62;61.84;101705.62;;;;-53
2020/11/04 06:01:05;;;;;;;1.66;1.53;;;;;;;19.62;61.77;101717.57;;;;-53
2020/11/04 06:04:04;;;;;;;1.65;1.55;;;;;;;19.61;61.82;101727.56;;;;-60
2020/11/04 06:07:04;;;;;;;1.67;1.45;;;;;;;19.61;61.74;101738.10;;;;-60
2020/11/04 06:10:04;;;;;;;1.58;1.48;;;;;;;19.61;61.80;101738.99;;;;-60
2020/11/04 06:13:04;;;;;;;2.06;1.69;;;;;;;19.59;61.78;101734.09;;;;-52
2020/11/04 06:16:04;;;;;;;1.60;1.50;;;;;;;19.59;61.76;101727.84;;;;-52
2020/11/04 06:19:04;;;;;;;1.63;1.49;;;;;;;19.60;61.85;101731.09;;;;-52
2020/11/04 06:22:04;;;;;;;1.61;1.34;;;;;;;19.59;61.70;101748.49;;;;-52
2020/11/04 06:25:04;;;;;;;1.50;1.40;;;;;;;19.59;61.78;101752.08;;;;-60
2020/11/04 06:28:04;;;;;;;1.60;1.50;;;;;;;19.58;61.78;101753.25;;;;-52
2020/11/04 06:31:04;;;;;;;1.60;1.50;;;;;;;19.59;61.75;101759.03;;;;-53
2020/11/04 06:34:04;;;;;;;1.59;1.44;;;;;;;19.60;61.80;101764.20;;;;-52
2020/11/04 06:37:04;;;;;;;1.57;1.47;;;;;;;19.59;61.81;101767.48;;;;-58
2020/11/04 06:40:04;;;;;;;1.54;1.44;;;;;;;19.59;61.86;101762.80;;;;-58
2020/11/04 06:43:04;;;;;;;1.60;1.50;;;;;;;19.59;61.86;101770.21;;;;-58
2020/11/04 06:46:04;;;;;;;2.05;1.51;;;;;;;19.60;61.85;101772.08;;;;-60
2020/11/04 06:49:04;;;;;;;1.66;1.51;;;;;;;19.60;61.79;101775.02;;;;-60
2020/11/04 06:52:04;;;;;;;1.60;1.50;;;;;;;19.59;61.84;101769.31;;;;-60
2020/11/04 06:55:04;;;;;;;1.70;1.40;;;;;;;19.59;61.76;101764.92;;;;-60
2020/11/04 06:58:04;;;;;;;1.86;1.60;;;;;;;19.59;61.73;101768.17;;;;-60
2020/11/04 07:01:04;;;;;;;1.50;1.40;;;;;;;19.59;61.79;101770.04;;;;-53
2020/11/04 07:04:04;;;;;;;3.23;1.60;;;;;;;19.59;61.72;101771.34;;;;-52
2020/11/04 07:07:04;;;;;;;2.93;1.60;;;;;;;19.59;61.76;101768.34;;;;-52
2020/11/04 07:10:04;;;;;;;2.31;1.54;;;;;;;19.59;61.68;101767.84;;;;-54
2020/11/04 07:13:04;;;;;;;1.59;1.49;;;;;;;19.59;61.72;101772.65;;;;-60
2020/11/04 07:16:04;;;;;;;2.21;1.61;;;;;;;19.59;61.68;101767.84;;;;-58
2020/11/04 07:19:04;;;;;;;1.70;1.60;;;;;;;19.59;61.75;101767.03;;;;-58
2020/11/04 07:22:04;;;;;;;1.53;1.43;;;;;;;19.59;61.69;101772.04;;;;-57
2020/11/04 07:25:04;;;;;;;1.87;1.55;;;;;;;19.59;61.73;101771.72;;;;-60
2020/11/04 07:28:04;;;;;;;2.39;1.50;;;;;;;19.58;61.64;101773.50;;;;-60
2020/11/04 07:31:04;;;;;;;1.70;1.59;;;;;;;19.58;61.62;101779.84;;;;-59
2020/11/04 07:34:04;;;;;;;1.69;1.54;;;;;;;19.58;61.58;101782.36;;;;-60
2020/11/04 07:37:04;;;;;;;1.60;1.47;;;;;;;19.58;61.64;101792.44;;;;-53
2020/11/04 07:40:04;;;;;;;1.57;1.47;;;;;;;19.58;61.59;101792.52;;;;-54
2020/11/04 07:43:04;;;;;;;2.36;1.60;;;;;;;19.57;61.59;101799.59;;;;-54
2020/11/04 07:46:04;;;;;;;1.82;1.63;;;;;;;19.58;61.62;101799.19;;;;-54
2020/11/04 07:49:04;;;;;;;1.77;1.60;;;;;;;19.57;61.58;101805.12;;;;-54
2020/11/04 07:52:04;;;;;;;1.88;1.55;;;;;;;19.57;61.57;101809.83;;;;-59
2020/11/04 07:55:04;;;;;;;1.85;1.58;;;;;;;19.57;61.59;101818.29;;;;-60
2020/11/04 07:58:04;;;;;;;1.56;1.46;;;;;;;19.57;61.56;101822.36;;;;-60
2020/11/04 08:01:04;;;;;;;1.86;1.60;;;;;;;19.57;61.54;101820.08;;;;-59
2020/11/04 08:04:04;;;;;;;2.39;1.60;;;;;;;19.57;61.54;101820.41;;;;-59
2020/11/04 08:07:04;;;;;;;1.65;1.53;;;;;;;19.56;61.50;101818.73;;;;-53
2020/11/04 08:10:04;;;;;;;1.88;1.67;;;;;;;19.56;61.56;101821.17;;;;-58
2020/11/04 08:13:04;;;;;;;2.78;1.55;;;;;;;19.58;61.54;101823.99;;;;-61
2020/11/04 08:16:04;;;;;;;1.84;1.53;;;;;;;19.60;61.60;101825.02;;;;-55
2020/11/04 08:19:04;;;;;;;3.36;1.81;;;;;;;19.63;61.75;101828.55;;;;-57
2020/11/04 08:22:04;;;;;;;1.81;1.49;;;;;;;19.67;61.81;101832.94;;;;-53
2020/11/04 08:25:04;;;;;;;3.10;1.43;;;;;;;19.72;61.85;101830.11;;;;-60
2020/11/04 08:28:04;;;;;;;2.82;1.61;;;;;;;19.76;61.95;101832.09;;;;-59
2020/11/04 08:31:04;;;;;;;3.01;1.63;;;;;;;19.82;62.18;101842.99;;;;-59
2020/11/04 08:34:04;;;;;;;2.95;1.69;;;;;;;19.86;61.73;101851.57;;;;-58
2020/11/04 08:37:04;;;;;;;2.39;1.56;;;;;;;19.92;61.77;101849.98;;;;-56
2020/11/04 08:40:04;;;;;;;2.20;1.67;;;;;;;19.95;61.49;101844.07;;;;-57
2020/11/04 08:43:04;;;;;;;3.68;1.77;;;;;;;19.99;61.32;101841.33;;;;-57
2020/11/04 08:46:04;;;;;;;2.94;1.91;;;;;;;20.03;61.35;101840.86;;;;-56
2020/11/04 08:49:04;;;;;;;2.63;1.89;;;;;;;20.07;61.21;101836.00;;;;-58
2020/11/04 08:52:04;;;;;;;3.75;1.89;;;;;;;20.10;61.01;101832.89;;;;-54
2020/11/04 08:55:04;;;;;;;4.77;1.94;;;;;;;20.14;60.87;101827.71;;;;-50
2020/11/04 08:58:04;;;;;;;3.65;2.01;;;;;;;20.18;61.25;101834.81;;;;-57
2020/11/04 09:01:04;;;;;;;3.93;1.93;;;;;;;20.21;60.97;101833.33;;;;-59
2020/11/04 09:04:04;;;;;;;3.73;1.95;;;;;;;20.24;60.42;101834.64;;;;-56
2020/11/04 09:07:04;;;;;;;2.21;1.85;;;;;;;20.26;60.05;101839.25;;;;-58
2020/11/04 09:10:04;;;;;;;2.61;2.06;;;;;;;20.31;59.89;101847.91;;;;-56
2020/11/04 09:13:04;;;;;;;2.83;1.81;;;;;;;20.34;60.24;101851.58;;;;-65
2020/11/04 09:16:04;;;;;;;4.15;2.00;;;;;;;20.36;60.19;101855.55;;;;-60
2020/11/04 09:19:04;;;;;;;3.13;1.90;;;;;;;20.39;60.63;101855.77;;;;-58
2020/11/04 09:22:04;;;;;;;3.43;1.91;;;;;;;20.42;60.39;101862.02;;;;-51
2020/11/04 09:25:04;;;;;;;3.03;1.95;;;;;;;20.43;60.36;101857.98;;;;-52
2020/11/04 09:28:04;;;;;;;3.11;1.83;;;;;;;20.45;60.33;101862.84;;;;-52
2020/11/04 09:31:04;;;;;;;4.16;1.90;;;;;;;20.47;60.69;101863.71;;;;-61
2020/11/04 09:34:04;;;;;;;4.17;1.88;;;;;;;20.50;60.70;101874.27;;;;-61
2020/11/04 09:37:04;;;;;;;3.83;2.14;;;;;;;20.48;59.61;101872.06;;;;-61
2020/11/04 09:40:04;;;;;;;2.67;1.87;;;;;;;20.49;59.57;101876.87;;;;-56
2020/11/04 09:43:04;;;;;;;4.25;1.95;;;;;;;20.51;59.89;101874.23;;;;-61
2020/11/04 09:46:04;;;;;;;4.45;1.97;;;;;;;20.53;60.04;101873.95;;;;-59
2020/11/04 09:49:04;;;;;;;3.08;1.82;;;;;;;20.53;60.11;101879.90;;;;-61
2020/11/04 09:52:04;;;;;;;2.63;1.80;;;;;;;20.54;60.11;101881.05;;;;-58
2020/11/04 09:55:04;;;;;;;3.53;1.80;;;;;;;20.54;60.20;101884.02;;;;-60
2020/11/04 09:58:04;;;;;;;2.06;1.57;;;;;;;20.55;60.15;101883.45;;;;-61
2020/11/04 10:01:04;;;;;;;2.89;1.71;;;;;;;20.56;60.18;101887.53;;;;-58
2020/11/04 10:04:04;;;;;;;2.38;1.67;;;;;;;20.55;60.19;101885.81;;;;-59
2020/11/04 10:07:04;;;;;;;2.89;1.72;;;;;;;20.56;60.20;101882.41;;;;-46
2020/11/04 10:10:04;;;;;;;3.86;1.81;;;;;;;20.58;60.18;101884.93;;;;-52
2020/11/04 10:13:04;;;;;;;3.43;2.06;;;;;;;20.59;59.99;101891.16;;;;-58
2020/11/04 10:16:04;;;;;;;4.15;1.88;;;;;;;20.59;59.88;101895.15;;;;-48
2020/11/04 10:19:04;;;;;;;2.97;1.85;;;;;;;20.59;59.66;101896.61;;;;-57
2020/11/04 10:22:04;;;;;;;2.63;1.79;;;;;;;20.62;59.62;101889.59;;;;-60
2020/11/04 10:25:04;;;;;;;4.67;2.09;;;;;;;20.63;59.79;101887.16;;;;-52
2020/11/04 10:28:04;;;;;;;4.37;1.71;;;;;;;20.64;59.99;101895.43;;;;-53
2020/11/04 10:31:04;;;;;;;3.13;1.97;;;;;;;20.65;60.06;101894.70;;;;-52
2020/11/04 10:34:04;;;;;;;2.84;1.82;;;;;;;20.67;60.06;101893.28;;;;-60
2020/11/04 10:37:04;;;;;;;2.82;1.88;;;;;;;20.69;60.13;101892.19;;;;-60
2020/11/04 10:40:04;;;;;;;2.86;1.83;;;;;;;20.69;60.20;101887.99;;;;-52
2020/11/04 10:43:04;;;;;;;2.71;1.84;;;;;;;20.70;60.28;101883.11;;;;-56
2020/11/04 10:46:04;;;;;;;3.24;1.77;;;;;;;20.73;60.28;101882.79;;;;-60
2020/11/04 10:49:04;;;;;;;4.05;1.77;;;;;;;20.74;60.17;101878.56;;;;-54
2020/11/04 10:52:04;;;;;;;2.74;1.67;;;;;;;20.74;60.23;101867.56;;;;-57
2020/11/04 10:55:04;;;;;;;1.77;1.61;;;;;;;20.75;60.26;101862.06;;;;-59
2020/11/04 10:58:04;;;;;;;3.52;1.65;;;;;;;20.77;60.25;101865.98;;;;-53
2020/11/04 11:01:04;;;;;;;2.07;1.69;;;;;;;20.78;60.31;101866.27;;;;-53
2020/11/04 11:04:04;;;;;;;2.34;1.68;;;;;;;20.79;60.41;101867.09;;;;-53
2020/11/04 11:07:04;;;;;;;3.43;1.83;;;;;;;20.79;60.34;101855.04;;;;-50
2020/11/04 11:10:04;;;;;;;2.78;1.64;;;;;;;20.81;60.36;101853.78;;;;-57
2020/11/04 11:13:04;;;;;;;3.33;1.81;;;;;;;20.82;60.31;101856.92;;;;-56
2020/11/04 11:16:04;;;;;;;4.26;1.71;;;;;;;20.84;60.44;101856.47;;;;-56
2020/11/04 11:19:04;;;;;;;3.87;1.70;;;;;;;20.84;60.39;101857.78;;;;-47
2020/11/04 11:22:05;;;;;;;2.76;1.73;;;;;;;20.84;60.32;101850.45;;;;-49
2020/11/04 11:25:04;;;;;;;2.67;1.71;;;;;;;20.87;60.21;101858.81;;;;-51
2020/11/04 11:28:04;;;;;;;3.15;1.65;;;;;;;20.86;60.13;101853.91;;;;-50
2020/11/04 11:31:04;;;;;;;2.94;1.61;;;;;;;20.86;60.09;101857.09;;;;-53
2020/11/04 11:34:04;;;;;;;2.59;1.57;;;;;;;20.85;60.03;101851.02;;;;-53
2020/11/04 11:37:04;;;;;;;2.41;1.69;;;;;;;20.85;60.01;101853.79;;;;-54
2020/11/04 11:40:05;;;;;;;2.59;1.63;;;;;;;20.84;60.01;101859.09;;;;-51
2020/11/04 11:43:04;;;;;;;3.22;1.60;;;;;;;20.84;59.96;101865.77;;;;-52
2020/11/04 11:46:04;;;;;;;2.97;1.65;;;;;;;20.85;59.90;101872.37;;;;-51
2020/11/04 11:49:04;;;;;;;3.29;1.65;;;;;;;20.84;59.91;101879.86;;;;-52
2020/11/04 11:52:04;;;;;;;2.38;1.59;;;;;;;20.84;59.90;101876.52;;;;-58
2020/11/04 11:55:04;;;;;;;3.89;1.64;;;;;;;20.84;59.81;101874.73;;;;-58
2020/11/04 11:58:04;;;;;;;2.34;1.68;;;;;;;20.84;59.97;101878.23;;;;-50
2020/11/04 12:01:04;;;;;;;1.68;1.51;;;;;;;20.84;59.84;101875.87;;;;-58
2020/11/04 12:04:04;;;;;;;1.70;1.53;;;;;;;20.84;59.83;101871.95;;;;-53
2020/11/04 12:07:04;;;;;;;2.18;1.40;;;;;;;20.84;59.81;101868.78;;;;-57
2020/11/04 12:10:04;;;;;;;2.87;1.55;;;;;;;20.84;59.83;101857.86;;;;-58
2020/11/04 12:13:04;;;;;;;1.56;1.46;;;;;;;20.86;59.80;101858.72;;;;-64
2020/11/04 12:16:04;;;;;;;2.35;1.45;;;;;;;20.85;59.79;101846.95;;;;-51
2020/11/04 12:19:04;;;;;;;2.03;1.50;;;;;;;20.86;59.77;101838.75;;;;-50
2020/11/04 12:22:04;;;;;;;2.95;1.55;;;;;;;20.87;59.73;101835.34;;;;-53
2020/11/04 12:25:04;;;;;;;1.67;1.43;;;;;;;20.87;59.74;101837.95;;;;-51
2020/11/04 12:28:04;;;;;;;1.67;1.56;;;;;;;20.87;59.74;101834.61;;;;-50
2020/11/04 12:31:04;;;;;;;2.07;1.57;;;;;;;20.87;59.76;101829.06;;;;-53
2020/11/04 12:34:04;;;;;;;1.61;1.47;;;;;;;20.87;59.70;101830.78;;;;-64
2020/11/04 12:37:04;;;;;;;1.96;1.69;;;;;;;20.88;59.69;101834.23;;;;-53
2020/11/04 12:40:04;;;;;;;2.05;1.58;;;;;;;20.88;59.70;101838.64;;;;-57
2020/11/04 12:43:04;;;;;;;1.87;1.54;;;;;;;20.88;59.73;101840.44;;;;-64
2020/11/04 12:46:04;;;;;;;1.55;1.40;;;;;;;20.89;59.69;101845.25;;;;-58
2020/11/04 12:49:04;;;;;;;1.55;1.41;;;;;;;20.89;59.65;101843.37;;;;-58
2020/11/04 12:52:04;;;;;;;1.74;1.50;;;;;;;20.89;59.64;101847.69;;;;-53
2020/11/04 12:55:04;;;;;;;1.79;1.42;;;;;;;20.90;59.69;101855.15;;;;-50
2020/11/04 12:58:04;;;;;;;2.12;1.60;;;;;;;20.90;59.62;101860.20;;;;-51
2020/11/04 13:01:04;;;;;;;1.49;1.39;;;;;;;20.91;59.66;101873.41;;;;-53
2020/11/04 13:04:04;;;;;;;1.44;1.34;;;;;;;20.90;59.61;101873.65;;;;-53
2020/11/04 13:07:04;;;;;;;1.72;1.40;;;;;;;20.91;59.64;101868.60;;;;-52
2020/11/04 13:10:04;;;;;;;1.51;1.41;;;;;;;20.91;59.75;101859.23;;;;-49
2020/11/04 13:13:04;;;;;;;2.62;1.69;;;;;;;20.90;59.38;101857.10;;;;-57
2020/11/04 13:16:04;;;;;;;2.11;1.81;;;;;;;20.89;58.80;101856.91;;;;-58
2020/11/04 13:19:04;;;;;;;3.19;2.02;;;;;;;20.91;58.61;101855.80;;;;-55
2020/11/04 13:22:04;;;;;;;3.04;2.57;;;;;;;20.91;58.63;101854.50;;;;-53
2020/11/04 13:25:04;;;;;;;3.95;2.95;;;;;;;20.92;58.78;101856.09;;;;-51
2020/11/04 13:28:04;;;;;;;5.76;3.83;;;;;;;20.94;58.60;101858.34;;;;-49
2020/11/04 13:31:04;;;;;;;6.19;4.18;;;;;;;20.94;58.46;101853.70;;;;-58
2020/11/04 13:34:04;;;;;;;5.67;4.53;;;;;;;20.95;58.65;101858.59;;;;-52
2020/11/04 13:37:04;;;;;;;6.64;4.45;;;;;;;20.95;58.51;101857.94;;;;-57
2020/11/04 13:40:04;;;;;;;6.13;4.31;;;;;;;20.96;58.52;101859.44;;;;-52
2020/11/04 13:43:04;;;;;;;6.95;4.50;;;;;;;20.96;58.44;101864.55;;;;-54
2020/11/04 13:46:04;;;;;;;5.63;4.39;;;;;;;20.97;58.38;101868.66;;;;-57
2020/11/04 13:49:04;;;;;;;6.75;4.84;;;;;;;20.98;58.35;101871.59;;;;-57
2020/11/04 13:52:04;;;;;;;6.12;4.65;;;;;;;20.98;58.51;101871.47;;;;-54
2020/11/04 13:55:04;;;;;;;7.78;4.93;;;;;;;20.99;58.42;101872.86;;;;-59
2020/11/04 13:58:04;;;;;;;8.19;5.09;;;;;;;20.99;58.92;101868.14;;;;-51
2020/11/04 14:01:04;;;;;;;7.23;5.61;;;;;;;21.02;58.74;101873.36;;;;-57
2020/11/04 14:04:04;;;;;;;8.39;5.36;;;;;;;21.04;58.43;101868.06;;;;-58
2020/11/04 14:07:04;;;;;;;7.33;5.09;;;;;;;21.05;58.53;101880.74;;;;-63
2020/11/04 14:10:04;;;;;;;7.45;4.61;;;;;;;21.05;58.59;101881.73;;;;-58
2020/11/04 14:13:04;;;;;;;8.11;4.48;;;;;;;21.06;58.60;101888.28;;;;-57
2020/11/04 14:16:04;;;;;;;7.56;4.74;;;;;;;21.06;58.64;101895.63;;;;-57
2020/11/04 14:19:04;;;;;;;7.13;4.53;;;;;;;21.07;58.64;101901.73;;;;-57
2020/11/04 14:22:04;;;;;;;8.34;4.61;;;;;;;21.07;58.72;101908.91;;;;-58
2020/11/04 14:25:04;;;;;;;7.44;4.67;;;;;;;21.07;58.71;101912.25;;;;-51
2020/11/04 14:28:04;;;;;;;7.17;4.70;;;;;;;21.05;58.85;101914.00;;;;-54
2020/11/04 14:31:04;;;;;;;7.25;4.59;;;;;;;21.06;58.75;101918.77;;;;-57
2020/11/04 14:34:04;;;;;;;7.54;4.37;;;;;;;21.05;58.46;101918.33;;;;-59
2020/11/04 14:37:04;;;;;;;5.91;4.13;;;;;;;21.06;58.34;101921.75;;;;-53
2020/11/04 14:40:04;;;;;;;6.63;4.29;;;;;;;21.06;58.26;101922.41;;;;-55
2020/11/04 14:43:04;;;;;;;6.62;3.82;;;;;;;21.06;58.15;101924.69;;;;-51
2020/11/04 14:46:05;;;;;;;7.64;4.16;;;;;;;21.06;58.22;101925.67;;;;-54
2020/11/04 14:49:04;;;;;;;5.43;3.95;;;;;;;21.06;58.11;101917.19;;;;-52
2020/11/04 14:52:04;;;;;;;6.33;4.16;;;;;;;21.08;57.51;101914.79;;;;-61
2020/11/04 14:55:04;;;;;;;4.95;3.75;;;;;;;21.07;57.77;101910.46;;;;-56
2020/11/04 14:58:04;;;;;;;5.13;3.61;;;;;;;21.07;57.76;101910.70;;;;-51
2020/11/04 15:01:04;;;;;;;4.72;3.56;;;;;;;21.06;57.91;101906.88;;;;-57
2020/11/04 15:04:04;;;;;;;4.72;3.73;;;;;;;21.06;57.85;101908.22;;;;-54
2020/11/04 15:07:04;;;;;;;5.72;3.86;;;;;;;21.07;57.83;101904.02;;;;-63
2020/11/04 15:10:04;;;;;;;4.98;3.35;;;;;;;21.07;57.66;101905.98;;;;-51
2020/11/04 15:13:04;;;;;;;5.79;3.82;;;;;;;21.07;57.44;101909.56;;;;-54
2020/11/04 15:16:04;;;;;;;4.61;3.71;;;;;;;21.06;56.94;101909.20;;;;-53
2020/11/04 15:19:04;;;;;;;6.01;3.66;;;;;;;21.06;56.77;101911.89;;;;-52
2020/11/04 15:22:04;;;;;;;4.91;3.71;;;;;;;21.06;57.01;101910.27;;;;-58
2020/11/04 15:25:04;;;;;;;7.36;3.39;;;;;;;21.06;57.01;101909.45;;;;-52
2020/11/04 15:28:04;;;;;;;5.28;3.62;;;;;;;21.06;56.81;101916.70;;;;-52
2020/11/04 15:31:04;;;;;;;9.11;3.57;;;;;;;21.07;56.63;101919.67;;;;-57
2020/11/04 15:34:04;;;;;;;4.62;3.22;;;;;;;21.05;56.49;101919.46;;;;-57
2020/11/04 15:37:04;;;;;;;6.83;3.29;;;;;;;21.04;56.28;101927.98;;;;-58
2020/11/04 15:40:04;;;;;;;6.47;3.42;;;;;;;21.02;56.07;101938.77;;;;-62
2020/11/04 15:43:04;;;;;;;4.37;3.31;;;;;;;21.01;55.94;101944.15;;;;-59
2020/11/04 15:46:04;;;;;;;5.07;3.26;;;;;;;21.01;55.79;101949.69;;;;-57
2020/11/04 15:49:04;;;;;;;4.26;2.76;;;;;;;20.98;55.85;101955.66;;;;-48
2020/11/04 15:52:04;;;;;;;6.85;3.07;;;;;;;21.02;56.54;101957.20;;;;-53
2020/11/04 15:55:04;;;;;;;5.93;2.87;;;;;;;21.04;56.89;101958.71;;;;-51
2020/11/04 15:58:04;;;;;;;4.34;2.98;;;;;;;21.06;57.17;101966.42;;;;-53
2020/11/04 16:01:04;;;;;;;5.04;2.98;;;;;;;21.07;57.42;101967.94;;;;-53
2020/11/04 16:04:04;;;;;;;3.79;3.09;;;;;;;21.08;57.52;101975.55;;;;-56
2020/11/04 16:07:04;;;;;;;3.78;2.87;;;;;;;21.10;57.71;101978.83;;;;-57
2020/11/04 16:10:04;;;;;;;3.65;2.99;;;;;;;21.11;57.73;101977.66;;;;-56
2020/11/04 16:13:04;;;;;;;3.43;2.78;;;;;;;21.13;57.82;101980.88;;;;-56
2020/11/04 16:16:04;;;;;;;4.17;2.91;;;;;;;21.13;57.81;101980.31;;;;-57
2020/11/04 16:19:04;;;;;;;3.42;2.79;;;;;;;21.15;58.01;101978.80;;;;-53
2020/11/04 16:22:04;;;;;;;5.51;3.09;;;;;;;21.16;58.02;101978.00;;;;-57
2020/11/04 16:25:04;;;;;;;4.25;2.61;;;;;;;21.16;58.19;101978.33;;;;-52
2020/11/04 16:28:04;;;;;;;7.81;2.86;;;;;;;21.16;58.06;101979.06;;;;-62
2020/11/04 16:31:04;;;;;;;3.81;2.91;;;;;;;21.17;58.23;101985.87;;;;-50
2020/11/04 16:34:04;;;;;;;3.49;2.51;;;;;;;21.18;58.22;101991.50;;;;-51
2020/11/04 16:37:04;;;;;;;3.67;2.63;;;;;;;21.19;58.33;101996.59;;;;-51
2020/11/04 16:40:04;;;;;;;3.65;2.75;;;;;;;21.20;58.35;101998.56;;;;-55
2020/11/04 16:43:04;;;;;;;3.78;2.65;;;;;;;21.20;58.38;102004.03;;;;-59